createdAt,value
2018-08-28T00:20:58.959Z,16.6
2018-08-28T00:21:29.620Z,16.6
2018-08-28T00:22:00.166Z,16.5
2018-08-28T00:32:50.980Z,16.2
2018-08-28T00:43:43.370Z,15.8
2018-08-28T00:47:40.868Z,15.8
2018-08-28T00:56:34.295Z,15.6
2018-08-28T01:00:31.792Z,15.5
2018-08-28T01:01:30.622Z,15.4
2018-08-28T04:24:07.379Z,16.8
2018-08-28T04:34:59.870Z,16.7
2018-08-28T05:33:20.007Z,16.8
2018-08-28T07:57:41.600Z,18.1
2018-08-28T07:58:12.020Z,18.1
2018-08-28T08:57:02.717Z,18.9
2018-08-28T09:01:00.230Z,19.1
2018-08-28T11:41:22.522Z,21.4
2018-08-28T11:42:21.851Z,21.2
2018-08-28T11:48:18.619Z,21.3
2018-08-28T11:59:12.343Z,21.2
2018-08-28T11:59:42.571Z,21.2
2018-08-28T12:01:10.981Z,21.3
2018-08-28T12:01:41.132Z,21.3
2018-08-28T12:02:11.663Z,21.4
2018-08-28T12:02:42.190Z,21.4
2018-08-28T12:03:12.610Z,21.4
2018-08-28T12:03:42.936Z,21.4
2018-08-28T12:08:07.001Z,21.3
2018-08-28T12:12:04.883Z,21.4
2018-08-28T12:12:35.349Z,21.4
2018-08-28T12:14:03.861Z,21.6
2018-08-28T12:16:02.363Z,21.5
2018-08-28T12:18:01.362Z,21.5
2018-08-28T12:19:00.799Z,21.5
2018-08-28T12:22:58.569Z,22.1
2018-08-28T12:23:58.174Z,22.1
2018-08-28T12:24:57.614Z,22.1
2018-08-28T12:26:56.223Z,22.1
2018-08-28T12:28:55.550Z,22.1
2018-08-28T12:30:54.373Z,22.1
2018-08-28T12:31:53.699Z,22.1
2018-08-28T12:32:53.027Z,22.1
2018-08-28T12:34:52.128Z,22
2018-08-28T12:35:51.343Z,21.9
2018-08-28T12:37:50.447Z,21.8
2018-08-28T12:42:47.383Z,21.7
2018-08-28T12:43:47.240Z,21.7
2018-08-28T12:45:45.923Z,21.6
2018-08-28T12:46:45.248Z,21.6
2018-08-28T12:52:42.015Z,21.8
2018-08-28T12:53:41.224Z,21.8
2018-08-28T12:54:40.686Z,21.9
2018-08-28T12:55:11.115Z,21.9
2018-08-28T12:55:41.646Z,22
2018-08-28T12:56:39.964Z,22
2018-08-28T12:57:39.071Z,22
2018-08-28T13:00:37.780Z,22.8
2018-08-28T13:02:36.245Z,23.2
2018-08-28T13:03:36.085Z,23.4
2018-08-28T13:04:35.303Z,23.6
2018-08-28T13:45:14.691Z,24.3
2018-08-28T13:46:13.816Z,23.9
2018-08-28T13:47:14.132Z,23.7
2018-08-28T13:48:13.094Z,23.9
2018-08-28T13:53:11.029Z,24.3
2018-08-28T13:53:41.522Z,24.3
2018-08-28T13:54:11.916Z,24.5
2018-08-28T13:54:42.238Z,24.5
2018-08-28T13:55:12.554Z,24.8
2018-08-28T13:55:43.331Z,24.8
2018-08-28T13:56:13.569Z,24.8
2018-08-28T13:56:44.239Z,24.8
2018-08-28T13:59:08.107Z,24.8
2018-08-28T14:00:07.513Z,24.4
2018-08-28T14:01:07.140Z,24.6
2018-08-28T14:05:05.115Z,24.9
2018-08-28T14:19:58.189Z,25.4
2018-08-28T14:20:57.938Z,25.4
2018-08-28T14:30:53.468Z,25.5
2018-08-28T14:33:52.227Z,25.3
2018-08-28T14:42:49.543Z,24.6
2018-08-28T14:43:48.075Z,24.4
2018-08-28T14:46:46.715Z,24.5
2018-08-28T14:47:46.460Z,24.6
2018-08-28T14:48:45.925Z,24.7
2018-08-28T14:55:43.119Z,25
2018-08-28T14:56:42.356Z,25
2018-08-28T15:02:40.133Z,25.7
2018-08-28T15:12:36.003Z,26.6
2018-08-28T15:14:35.364Z,26.6
2018-08-28T15:15:34.570Z,26
2018-08-28T15:16:34.592Z,26.1
2018-08-28T15:22:31.444Z,26
2018-08-28T15:25:30.557Z,26
2018-08-28T15:39:24.460Z,24.8
2018-08-28T15:42:23.192Z,24.7
2018-08-28T15:53:18.410Z,24.1
2018-08-28T16:00:15.172Z,24
2018-08-28T16:02:14.299Z,23.9
2018-08-28T16:08:11.463Z,23.8
2018-08-28T16:08:41.734Z,23.8
2018-08-28T16:13:08.810Z,23.7
2018-08-28T16:16:07.808Z,23.6
2018-08-28T16:17:07.243Z,23.6
2018-08-28T16:18:07.148Z,23.5
2018-08-28T16:19:05.909Z,23.4
2018-08-28T16:19:36.552Z,23.4
2018-08-28T16:21:04.967Z,23.4
2018-08-28T16:21:35.492Z,23.4
2018-08-28T16:22:06.125Z,23.3
2018-08-28T16:22:36.646Z,23.3
2018-08-28T16:24:03.436Z,23.3
2018-08-28T16:25:02.940Z,23.2
2018-08-28T16:26:02.672Z,23.2
2018-08-28T16:27:02.009Z,23.1
2018-08-28T16:28:01.906Z,23.1
2018-08-28T16:30:00.902Z,23.1
2018-08-28T16:31:00.518Z,23.1
2018-08-28T16:31:59.847Z,23.1
2018-08-28T16:32:59.091Z,23.1
2018-08-28T16:33:59.361Z,23.1
2018-08-28T16:36:57.476Z,23.1
2018-08-28T16:40:55.607Z,23.2
2018-08-28T16:41:55.021Z,23.2
2018-08-28T16:42:54.356Z,23.2
2018-08-28T16:43:53.908Z,23.2
2018-08-28T16:44:53.128Z,23.2
2018-08-28T16:46:52.627Z,23
2018-08-28T16:49:50.432Z,23
2018-08-28T16:50:50.263Z,23
2018-08-28T16:52:49.076Z,22.9
2018-08-28T16:53:19.614Z,22.9
2018-08-28T16:56:46.904Z,22.7
2018-08-28T17:01:44.975Z,22.6
2018-08-28T17:16:36.856Z,22
2018-08-28T17:18:35.565Z,22
2018-08-28T17:26:31.225Z,21.6
2018-08-28T17:28:30.343Z,21.5
2018-08-28T17:44:21.122Z,20.7
2018-08-28T17:50:17.893Z,20.4
2018-08-28T17:50:48.317Z,20.4
2018-08-28T17:52:16.727Z,20.2
2018-08-28T17:52:47.248Z,20.2
2018-08-28T17:53:17.776Z,20.2
2018-08-28T17:54:15.585Z,20.1
2018-08-28T17:57:13.575Z,20
2018-08-28T17:58:12.800Z,19.9
2018-08-28T17:59:12.625Z,19.9
2018-08-28T18:01:11.345Z,19.8
2018-08-28T18:01:41.807Z,19.8
2018-08-28T18:02:12.545Z,19.7
2018-08-28T18:02:43.200Z,19.7
2018-08-28T18:03:13.353Z,19.6
2018-08-28T18:03:44.264Z,19.6
2018-08-28T18:07:07.651Z,19.5
2018-08-28T18:08:06.861Z,19.4
2018-08-28T18:09:06.738Z,19.4
2018-08-28T18:10:06.068Z,19.3
2018-08-28T18:11:05.512Z,19.2
2018-08-28T18:12:04.824Z,19.2
2018-08-28T18:13:04.145Z,19.2
2018-08-28T18:14:03.475Z,19.1
2018-08-28T18:15:02.806Z,19
2018-08-28T18:18:00.910Z,18.9
2018-08-28T18:19:00.341Z,18.8
2018-08-28T18:19:59.767Z,18.8
2018-08-28T18:20:58.971Z,18.7
2018-08-28T18:21:58.922Z,18.7
2018-08-28T18:22:57.748Z,18.7
2018-08-28T18:24:56.963Z,18.6
2018-08-28T18:25:56.181Z,18.5
2018-08-28T18:26:55.560Z,18.5
2018-08-28T18:27:54.881Z,18.5
2018-08-28T18:28:54.948Z,18.4
2018-08-28T18:29:53.877Z,18.4
2018-08-28T18:30:53.098Z,18.3
2018-08-28T18:31:52.422Z,18.3
2018-08-28T18:32:52.037Z,18.3
2018-08-28T18:33:51.365Z,18.2
2018-08-28T18:34:50.859Z,18.2
2018-08-28T18:35:49.634Z,18.2
2018-08-28T18:36:49.627Z,18.1
2018-08-28T18:37:48.814Z,18.1
2018-08-28T18:38:48.227Z,18
2018-08-28T18:39:47.504Z,18
2018-08-28T18:40:46.894Z,18
2018-08-28T18:41:46.081Z,17.9
2018-08-28T18:42:45.455Z,17.9
2018-08-28T18:43:45.192Z,17.9
2018-08-28T18:44:15.419Z,17.9
2018-08-28T18:44:46.049Z,17.8
2018-08-28T18:45:16.291Z,17.8
2018-08-28T18:46:43.189Z,17.8
2018-08-28T18:47:42.408Z,17.7
2018-08-28T18:48:41.622Z,17.7
2018-08-28T18:49:41.342Z,17.6
2018-08-28T18:50:40.458Z,17.6
2018-08-28T18:51:39.675Z,17.5
2018-08-28T18:52:39.509Z,17.5
2018-08-28T18:53:38.542Z,17.4
2018-08-28T18:54:37.867Z,17.4
2018-08-28T18:55:37.188Z,17.4
2018-08-28T18:56:36.630Z,17.4
2018-08-28T18:57:35.949Z,17.3
2018-08-28T18:58:35.271Z,17.3
2018-08-28T18:59:34.603Z,17.2
2018-08-28T19:00:33.828Z,17.2
2018-08-28T19:02:32.853Z,17.1
2018-08-28T19:03:32.378Z,17.1
2018-08-28T19:04:31.609Z,17
2018-08-28T19:05:30.934Z,17
2018-08-28T19:06:30.045Z,17
2018-08-28T19:07:29.265Z,17
2018-08-28T19:08:28.581Z,16.9
2018-08-28T19:09:28.001Z,16.9
2018-08-28T19:10:27.466Z,16.9
2018-08-28T19:11:26.688Z,16.9
2018-08-28T19:13:25.528Z,16.8
2018-08-28T19:14:25.011Z,16.8
2018-08-28T19:15:24.112Z,16.7
2018-08-28T19:16:23.455Z,16.7
2018-08-28T19:17:22.668Z,16.7
2018-08-28T19:18:22.498Z,16.7
2018-08-28T19:19:21.817Z,16.6
2018-08-28T19:20:21.418Z,16.6
2018-08-28T19:21:20.540Z,16.6
2018-08-28T19:22:19.408Z,16.6
2018-08-28T19:23:18.795Z,16.6
2018-08-28T19:24:18.548Z,16.6
2018-08-28T19:25:17.883Z,16.5
2018-08-28T19:26:17.098Z,16.5
2018-08-28T19:27:16.316Z,16.5
2018-08-28T19:28:15.645Z,16.5
2018-08-28T19:29:14.861Z,16.5
2018-08-28T19:30:13.977Z,16.4
2018-08-28T19:30:44.577Z,16.4
2018-08-28T19:31:14.893Z,16.4
2018-08-28T19:32:12.788Z,16.4
2018-08-28T19:33:12.082Z,16.4
2018-08-28T19:34:11.563Z,16.4
2018-08-28T19:35:10.908Z,16.3
2018-08-28T19:36:10.257Z,16.3
2018-08-28T19:37:09.697Z,16.3
2018-08-28T19:38:08.913Z,16.2
2018-08-28T19:39:08.241Z,16.2
2018-08-28T19:40:07.250Z,16.1
2018-08-28T19:41:06.854Z,16.1
2018-08-28T19:41:37.274Z,16.1
2018-08-28T19:42:07.905Z,16.1
2018-08-28T19:42:38.543Z,16.1
2018-08-28T19:43:09.290Z,16.1
2018-08-28T19:43:39.722Z,16.1
2018-08-28T19:45:04.223Z,16
2018-08-28T19:46:03.339Z,16
2018-08-28T19:47:02.561Z,16
2018-08-28T19:48:01.902Z,16
2018-08-28T19:49:01.516Z,15.9
2018-08-28T19:50:01.328Z,15.9
2018-08-28T19:51:59.179Z,15.9
2018-08-28T19:52:29.832Z,15.9
2018-08-28T19:53:00.357Z,15.8
2018-08-28T19:53:31.386Z,15.8
2018-08-28T19:54:57.563Z,15.8
2018-08-28T19:55:56.893Z,15.7
2018-08-28T19:56:56.495Z,15.7
2018-08-28T19:57:55.413Z,15.7
2018-08-28T19:58:54.736Z,15.7
2018-08-28T19:59:53.737Z,15.6
2018-08-28T20:00:53.361Z,15.6
2018-08-28T20:01:52.691Z,15.6
2018-08-28T20:02:52.022Z,15.6
2018-08-28T20:03:51.497Z,15.5
2018-08-28T20:04:50.414Z,15.6
2018-08-28T20:05:50.386Z,15.5
2018-08-28T20:06:49.332Z,15.5
2018-08-28T20:07:48.662Z,15.5
2018-08-28T20:08:47.993Z,15.4
2018-08-28T20:09:47.367Z,15.4
2018-08-28T20:10:46.689Z,15.4
2018-08-28T20:11:45.905Z,15.4
2018-08-28T20:12:44.825Z,15.3
2018-08-28T20:13:44.146Z,15.3
2018-08-28T20:14:44.005Z,15.3
2018-08-28T20:16:42.510Z,15.3
2018-08-28T20:17:41.617Z,15.3
2018-08-28T20:18:40.935Z,15.3
2018-08-28T20:19:40.146Z,15.2
2018-08-28T20:20:39.682Z,15.2
2018-08-28T20:21:38.947Z,15.2
2018-08-28T20:22:09.485Z,15.2
2018-08-28T20:22:40.126Z,15.2
2018-08-28T20:23:10.383Z,15.2
2018-08-28T20:23:40.616Z,15.2
2018-08-28T20:24:11.146Z,15.2
2018-08-28T20:24:41.668Z,15.1
2018-08-28T20:25:11.944Z,15.1
2018-08-28T20:26:35.537Z,15.1
2018-08-28T20:27:34.756Z,15.1
2018-08-28T20:28:33.967Z,15
2018-08-28T20:29:33.083Z,15
2018-08-28T20:30:32.649Z,15
2018-08-28T20:31:31.610Z,15
2018-08-28T20:32:30.933Z,15
2018-08-28T20:33:01.169Z,15
2018-08-28T20:33:31.811Z,14.9
2018-08-28T20:34:01.952Z,14.9
2018-08-28T20:34:32.597Z,14.9
2018-08-28T20:35:03.144Z,14.9
2018-08-28T20:35:33.786Z,14.9
2018-08-28T20:36:04.423Z,14.9
2018-08-28T20:38:26.887Z,14.9
2018-08-28T20:39:25.996Z,14.9
2018-08-28T20:40:25.504Z,14.9
2018-08-28T20:41:24.605Z,14.9
2018-08-28T20:42:24.326Z,14.9
2018-08-28T20:43:23.138Z,14.9
2018-08-28T20:44:22.457Z,14.9
2018-08-28T20:45:22.084Z,14.9
2018-08-28T20:47:20.339Z,14.9
2018-08-28T20:48:19.590Z,14.9
2018-08-28T20:49:18.805Z,14.9
2018-08-28T20:50:18.241Z,14.9
2018-08-28T20:51:17.561Z,14.9
2018-08-28T20:52:16.887Z,14.9
2018-08-28T20:53:16.333Z,14.9
2018-08-28T20:54:15.592Z,14.9
2018-08-28T20:55:14.932Z,14.9
2018-08-28T20:56:14.149Z,14.8
2018-08-28T20:57:13.362Z,14.8
2018-08-28T20:58:12.268Z,14.8
2018-08-28T20:59:11.884Z,14.8
2018-08-28T21:00:11.215Z,14.8
2018-08-28T21:01:10.428Z,14.8
2018-08-28T21:02:09.748Z,14.8
2018-08-28T21:03:09.078Z,14.7
2018-08-28T21:04:08.400Z,14.7
2018-08-28T21:04:38.533Z,14.7
2018-08-28T21:05:09.066Z,14.7
2018-08-28T21:05:39.303Z,14.7
2018-08-28T21:07:06.300Z,14.7
2018-08-28T21:08:05.621Z,14.7
2018-08-28T21:09:05.064Z,14.6
2018-08-28T21:10:04.067Z,14.6
2018-08-28T21:11:03.176Z,14.6
2018-08-28T21:12:02.392Z,14.6
2018-08-28T21:13:02.398Z,14.6
2018-08-28T21:14:01.174Z,14.6
2018-08-28T21:15:00.656Z,14.6
2018-08-28T21:15:30.891Z,14.6
2018-08-28T21:16:01.326Z,14.6
2018-08-28T21:16:31.851Z,14.6
2018-08-28T21:17:02.493Z,14.6
2018-08-28T21:17:58.182Z,14.6
2018-08-28T21:18:57.499Z,14.6
2018-08-28T21:19:56.606Z,14.6
2018-08-28T21:20:56.029Z,14.6
2018-08-28T21:21:55.354Z,14.6
2018-08-28T21:22:54.978Z,14.6
2018-08-28T21:23:53.645Z,14.6
2018-08-28T21:24:53.586Z,14.6
2018-08-28T21:25:52.795Z,14.6
2018-08-28T21:26:51.916Z,14.6
2018-08-28T21:27:51.035Z,14.6
2018-08-28T21:28:50.519Z,14.6
2018-08-28T21:31:48.480Z,14.6
2018-08-28T21:36:44.747Z,14.5
2018-08-28T21:37:43.860Z,14.6
2018-08-28T21:38:43.201Z,14.5
2018-08-28T21:40:41.701Z,14.5
2018-08-28T21:41:41.123Z,14.5
2018-08-28T21:42:40.449Z,14.5
2018-08-28T21:43:39.779Z,14.5
2018-08-28T21:44:39.172Z,14.5
2018-08-28T21:45:37.876Z,14.5
2018-08-28T21:46:37.589Z,14.5
2018-08-28T21:47:36.558Z,14.4
2018-08-28T21:48:35.923Z,14.4
2018-08-28T21:49:35.256Z,14.4
2018-08-28T21:50:34.596Z,14.4
2018-08-28T21:51:33.929Z,14.4
2018-08-28T21:52:33.035Z,14.4
2018-08-28T21:53:32.241Z,14.4
2018-08-28T21:54:31.341Z,14.4
2018-08-28T21:55:31.182Z,14.3
2018-08-28T21:56:30.073Z,14.3
2018-08-28T21:57:29.285Z,14.3
2018-08-28T21:58:28.604Z,14.3
2018-08-28T21:59:27.929Z,14.3
2018-08-28T22:00:27.281Z,14.3
2018-08-28T22:00:57.534Z,14.3
2018-08-28T22:02:25.728Z,14.3
2018-08-28T22:03:25.057Z,14.3
2018-08-28T22:05:23.660Z,14.2
2018-08-28T22:06:23.087Z,14.2
2018-08-28T22:07:22.318Z,14.2
2018-08-28T22:08:21.540Z,14.2
2018-08-28T22:09:20.759Z,14.2
2018-08-28T22:10:19.868Z,14.2
2018-08-28T22:10:50.499Z,14.2
2018-08-28T22:11:21.131Z,14.1
2018-08-28T22:11:51.363Z,14.1
2018-08-28T22:12:21.612Z,14.1
2018-08-28T22:12:52.141Z,14.1
2018-08-28T22:13:22.745Z,14.1
2018-08-28T22:13:53.291Z,14.1
2018-08-28T22:15:16.163Z,14.1
2018-08-28T22:16:15.377Z,14.1
2018-08-28T22:17:14.700Z,14.1
2018-08-28T22:18:14.017Z,14.1
2018-08-28T22:20:12.835Z,14
2018-08-28T22:21:12.043Z,14
2018-08-28T22:22:11.364Z,14
2018-08-28T22:23:10.694Z,14
2018-08-28T22:24:09.711Z,14
2018-08-28T22:25:09.080Z,14
2018-08-28T22:26:08.403Z,14
2018-08-28T22:27:07.615Z,14
2018-08-28T22:28:06.618Z,14
2018-08-28T22:29:06.048Z,14
2018-08-28T22:30:05.265Z,14
2018-08-28T22:31:04.277Z,13.9
2018-08-28T22:33:03.383Z,14
2018-08-28T22:34:02.197Z,13.9
2018-08-28T22:35:01.418Z,13.9
2018-08-28T22:36:00.782Z,13.9
2018-08-28T22:37:59.497Z,13.9
2018-08-28T22:38:58.814Z,13.9
2018-08-28T22:39:57.631Z,13.9
2018-08-28T22:41:56.442Z,13.9
2018-08-28T22:42:26.987Z,13.9
2018-08-28T22:43:54.994Z,13.9
2018-08-28T22:44:54.318Z,13.8
2018-08-28T22:45:53.428Z,13.8
2018-08-28T22:46:53.032Z,13.8
2018-08-28T22:47:51.968Z,13.8
2018-08-28T22:48:51.405Z,13.8
2018-08-28T22:49:50.834Z,13.7
2018-08-28T22:50:50.046Z,13.7
2018-08-28T22:51:48.857Z,13.7
2018-08-28T22:52:19.272Z,13.7
2018-08-28T22:52:50.007Z,13.7
2018-08-28T22:53:20.242Z,13.7
2018-08-28T22:53:50.769Z,13.7
2018-08-28T22:54:21.537Z,13.7
2018-08-28T22:54:52.225Z,13.7
2018-08-28T22:55:22.746Z,13.7
2018-08-28T22:56:45.216Z,13.7
2018-08-28T22:57:44.640Z,13.6
2018-08-28T22:58:43.859Z,13.6
2018-08-28T22:59:43.190Z,13.6
2018-08-28T23:00:42.625Z,13.6
2018-08-28T23:01:41.449Z,13.6
2018-08-28T23:02:40.665Z,13.5
2018-08-28T23:03:11.396Z,13.5
2018-08-28T23:05:38.684Z,13.5
2018-08-28T23:06:38.110Z,13.5
2018-08-28T23:08:36.320Z,13.5
2018-08-28T23:09:35.745Z,13.5
2018-08-28T23:10:35.179Z,13.5
2018-08-28T23:12:33.282Z,13.4
2018-08-28T23:13:32.608Z,13.4
2018-08-28T23:14:31.825Z,13.4
2018-08-28T23:15:31.096Z,13.4
2018-08-28T23:16:30.664Z,13.4
2018-08-28T23:19:27.828Z,13.4
2018-08-28T23:21:26.535Z,13.3
2018-08-28T23:22:26.011Z,13.3
2018-08-28T23:23:25.241Z,13.3
2018-08-28T23:24:24.568Z,13.3
2018-08-28T23:25:23.898Z,13.3
2018-08-28T23:27:22.506Z,13.2
2018-08-28T23:28:21.449Z,13.2
2018-08-28T23:29:20.555Z,13.2
2018-08-28T23:30:19.982Z,13.2
2018-08-28T23:32:18.185Z,13.2
2018-08-28T23:33:18.005Z,13.2
2018-08-28T23:34:17.112Z,13.1
2018-08-28T23:34:47.350Z,13.1
2018-08-28T23:36:15.748Z,13.1
2018-08-28T23:37:14.560Z,13.1
2018-08-28T23:38:13.880Z,13.1
2018-08-28T23:39:13.242Z,13.1
2018-08-28T23:40:12.670Z,13.1
2018-08-28T23:41:11.991Z,13.1
2018-08-28T23:42:10.804Z,13.1
2018-08-28T23:43:10.126Z,13.1
2018-08-28T23:44:09.579Z,13.1
2018-08-28T23:45:08.404Z,13.1
2018-08-28T23:48:06.659Z,13
2018-08-28T23:49:05.477Z,13
2018-08-28T23:50:04.802Z,13
2018-08-28T23:50:34.940Z,13
2018-08-28T23:51:05.465Z,13
2018-08-28T23:51:36.203Z,13
2018-08-28T23:53:02.485Z,13
2018-08-28T23:54:01.707Z,13
2018-08-28T23:55:00.819Z,13
2018-08-28T23:56:00.426Z,13
2018-08-28T23:56:59.746Z,13
2018-08-28T23:57:58.669Z,13
2018-08-28T23:58:58.101Z,12.9
2018-08-28T23:59:57.420Z,12.9
